CPR weather

Casper-Natrona County International Airport
Casper, Wyoming, United States

Public forecast

Using degrees Fahrenheit for public forecast. Weather courtesy of forecast.io.

Current aviation weather report (METAR) for Casper-Natrona County International Airport

Retrieved 2019/12/06 11:53 UTC (53 minutes ago):

KCPR 061153Z 23012KT 10SM CLR M02/M04 A3016 RMK AO2 SLP247 T10221044 11017 21078 55001

Aviation forecast (TAF) for Casper-Natrona County International Airport

Retrieved 2019/12/06 12:36 UTC (10 minutes ago):

TAF KCPR 061134Z 0612/0712 22014G22KT P6SM BKN200 FM061700 22020G30KT P6SM FEW250